sensor_id;sensor_type;location;lat;lon;timestamp;pressure;altitude;pressure_sealevel;temperature;humidity
14966;BME280;7577;45.226;5.798;2023-08-01T00:01:46;98579.17;;;28.50;40.67
14966;BME280;7577;45.226;5.798;2023-08-01T00:04:16;98580.58;;;28.50;40.65
14966;BME280;7577;45.226;5.798;2023-08-01T00:06:46;98574.97;;;28.50;40.65
14966;BME280;7577;45.226;5.798;2023-08-01T00:09:16;98574.77;;;28.49;40.64
14966;BME280;7577;45.226;5.798;2023-08-01T00:11:45;98576.17;;;28.49;40.62
14966;BME280;7577;45.226;5.798;2023-08-01T00:14:15;98574.77;;;28.49;40.61
14966;BME280;7577;45.226;5.798;2023-08-01T00:16:46;98569.36;;;28.50;40.59
14966;BME280;7577;45.226;5.798;2023-08-01T00:19:17;98566.36;;;28.49;40.57
14966;BME280;7577;45.226;5.798;2023-08-01T00:21:46;98564.77;;;28.48;40.58
14966;BME280;7577;45.226;5.798;2023-08-01T00:24:16;98568.77;;;28.47;40.58
14966;BME280;7577;45.226;5.798;2023-08-01T00:26:47;98566.75;;;28.48;40.57
14966;BME280;7577;45.226;5.798;2023-08-01T00:31:54;98568.97;;;28.48;40.57
14966;BME280;7577;45.226;5.798;2023-08-01T00:34:24;98566.35;;;28.46;40.56
14966;BME280;7577;45.226;5.798;2023-08-01T00:36:56;98560.55;;;28.45;40.57
14966;BME280;7577;45.226;5.798;2023-08-01T00:39:26;98554.13;;;28.44;40.55
14966;BME280;7577;45.226;5.798;2023-08-01T00:41:56;98552.14;;;28.45;40.53
14966;BME280;7577;45.226;5.798;2023-08-01T00:44:26;98554.71;;;28.44;40.53
14966;BME280;7577;45.226;5.798;2023-08-01T00:46:56;98558.13;;;28.43;40.56
14966;BME280;7577;45.226;5.798;2023-08-01T00:49:26;98566.94;;;28.45;40.51
14966;BME280;7577;45.226;5.798;2023-08-01T00:51:57;98564.33;;;28.46;40.53
14966;BME280;7577;45.226;5.798;2023-08-01T00:54:27;98557.74;;;28.45;40.54
14966;BME280;7577;45.226;5.798;2023-08-01T00:56:59;98554.13;;;28.44;40.53
14966;BME280;7577;45.226;5.798;2023-08-01T00:59:31;98550.31;;;28.43;40.55
14966;BME280;7577;45.226;5.798;2023-08-01T01:02:01;98545.91;;;28.42;40.53
14966;BME280;7577;45.226;5.798;2023-08-01T01:04:31;98551.71;;;28.43;40.55
14966;BME280;7577;45.226;5.798;2023-08-01T01:07:03;98550.70;;;28.41;40.57
14966;BME280;7577;45.226;5.798;2023-08-01T01:09:34;98549.91;;;28.41;40.56
14966;BME280;7577;45.226;5.798;2023-08-01T01:12:07;98547.47;;;28.39;40.58
14966;BME280;7577;45.226;5.798;2023-08-01T01:14:37;98546.85;;;28.40;40.58
14966;BME280;7577;45.226;5.798;2023-08-01T01:17:07;98548.05;;;28.39;40.56
14966;BME280;7577;45.226;5.798;2023-08-01T01:19:38;98543.06;;;28.38;40.56
14966;BME280;7577;45.226;5.798;2023-08-01T01:22:09;98532.02;;;28.36;40.48
14966;BME280;7577;45.226;5.798;2023-08-01T01:24:41;98530.45;;;28.38;40.58
14966;BME280;7577;45.226;5.798;2023-08-01T01:27:13;98523.84;;;28.37;40.54
14966;BME280;7577;45.226;5.798;2023-08-01T01:29:45;98525.01;;;28.36;40.52
14966;BME280;7577;45.226;5.798;2023-08-01T01:32:17;98518.62;;;28.35;40.55
14966;BME280;7577;45.226;5.798;2023-08-01T01:34:47;98517.02;;;28.34;40.56
14966;BME280;7577;45.226;5.798;2023-08-01T01:37:17;98520.81;;;28.36;40.54
14966;BME280;7577;45.226;5.798;2023-08-01T01:39:47;98511.42;;;28.34;40.52
14966;BME280;7577;45.226;5.798;2023-08-01T01:42:18;98506.60;;;28.35;40.52
14966;BME280;7577;45.226;5.798;2023-08-01T01:44:47;98503.20;;;28.32;40.54
14966;BME280;7577;45.226;5.798;2023-08-01T01:47:18;98506.41;;;28.34;40.53
14966;BME280;7577;45.226;5.798;2023-08-01T01:49:49;98506.41;;;28.34;40.49
14966;BME280;7577;45.226;5.798;2023-08-01T01:52:18;98505.59;;;28.33;40.49
14966;BME280;7577;45.226;5.798;2023-08-01T01:54:48;98505.19;;;28.31;40.51
14966;BME280;7577;45.226;5.798;2023-08-01T01:57:19;98501.38;;;28.30;40.51
14966;BME280;7577;45.226;5.798;2023-08-01T01:59:49;98490.98;;;28.30;40.49
14966;BME280;7577;45.226;5.798;2023-08-01T02:02:19;98499.39;;;28.30;40.48
14966;BME280;7577;45.226;5.798;2023-08-01T02:04:49;98502.39;;;28.31;40.45
14966;BME280;7577;45.226;5.798;2023-08-01T02:07:20;98507.17;;;28.31;40.44
14966;BME280;7577;45.226;5.798;2023-08-01T02:09:50;98494.56;;;28.31;40.42
14966;BME280;7577;45.226;5.798;2023-08-01T02:12:20;98497.37;;;28.31;40.41
14966;BME280;7577;45.226;5.798;2023-08-01T02:14:50;98490.78;;;28.29;40.42
14966;BME280;7577;45.226;5.798;2023-08-01T02:17:20;98502.58;;;28.29;40.39
14966;BME280;7577;45.226;5.798;2023-08-01T02:19:50;98503.16;;;28.28;40.39
14966;BME280;7577;45.226;5.798;2023-08-01T02:22:20;98496.55;;;28.27;40.41
14966;BME280;7577;45.226;5.798;2023-08-01T02:24:50;98504.75;;;28.26;40.43
14966;BME280;7577;45.226;5.798;2023-08-01T02:27:20;98511.17;;;28.26;40.43
14966;BME280;7577;45.226;5.798;2023-08-01T02:29:51;98506.15;;;28.26;40.41
14966;BME280;7577;45.226;5.798;2023-08-01T02:32:21;98511.55;;;28.25;40.43
14966;BME280;7577;45.226;5.798;2023-08-01T02:34:50;98512.95;;;28.25;40.47
14966;BME280;7577;45.226;5.798;2023-08-01T02:37:21;98508.36;;;28.23;40.48
14966;BME280;7577;45.226;5.798;2023-08-01T02:39:51;98516.95;;;28.24;40.44
14966;BME280;7577;45.226;5.798;2023-08-01T02:42:21;98520.55;;;28.24;40.42
14966;BME280;7577;45.226;5.798;2023-08-01T02:44:51;98521.16;;;28.24;40.41
14966;BME280;7577;45.226;5.798;2023-08-01T02:47:21;98511.35;;;28.24;40.41
14966;BME280;7577;45.226;5.798;2023-08-01T02:49:51;98519.95;;;28.25;40.34
14966;BME280;7577;45.226;5.798;2023-08-01T02:52:21;98516.95;;;28.24;40.35
14966;BME280;7577;45.226;5.798;2023-08-01T02:54:52;98523.96;;;28.24;40.38
14966;BME280;7577;45.226;5.798;2023-08-01T02:57:22;98516.52;;;28.18;40.39
14966;BME280;7577;45.226;5.798;2023-08-01T02:59:52;98523.91;;;28.20;40.37
14966;BME280;7577;45.226;5.798;2023-08-01T03:02:23;98528.12;;;28.20;40.37
14966;BME280;7577;45.226;5.798;2023-08-01T03:04:52;98522.31;;;28.19;40.37
14966;BME280;7577;45.226;5.798;2023-08-01T03:07:22;98517.33;;;28.19;40.39
14966;BME280;7577;45.226;5.798;2023-08-01T03:09:52;98517.72;;;28.17;40.39
14966;BME280;7577;45.226;5.798;2023-08-01T03:12:24;98519.31;;;28.18;40.38
14966;BME280;7577;45.226;5.798;2023-08-01T03:14:54;98511.09;;;28.12;40.39
14966;BME280;7577;45.226;5.798;2023-08-01T03:17:24;98518.69;;;28.15;40.38
14966;BME280;7577;45.226;5.798;2023-08-01T03:19:53;98524.91;;;28.15;40.39
14966;BME280;7577;45.226;5.798;2023-08-01T03:25:01;98511.09;;;28.16;40.38
14966;BME280;7577;45.226;5.798;2023-08-01T03:27:33;98521.67;;;28.13;40.36
14966;BME280;7577;45.226;5.798;2023-08-01T03:30:05;98520.46;;;28.10;40.38
14966;BME280;7577;45.226;5.798;2023-08-01T03:32:37;98521.08;;;28.10;40.34
14966;BME280;7577;45.226;5.798;2023-08-01T03:37:46;98514.47;;;28.12;40.35
14966;BME280;7577;45.226;5.798;2023-08-01T03:40:16;98501.63;;;28.07;40.32
14966;BME280;7577;45.226;5.798;2023-08-01T03:42:48;98495.64;;;28.08;40.30
14966;BME280;7577;45.226;5.798;2023-08-01T03:45:19;98484.44;;;28.08;40.31
14966;BME280;7577;45.226;5.798;2023-08-01T03:47:49;98489.84;;;28.08;40.33
14966;BME280;7577;45.226;5.798;2023-08-01T03:50:19;98490.66;;;28.08;40.33
14966;BME280;7577;45.226;5.798;2023-08-01T03:52:50;98495.05;;;28.06;40.52
14966;BME280;7577;45.226;5.798;2023-08-01T03:57:59;98478.23;;;28.06;40.49
14966;BME280;7577;45.226;5.798;2023-08-01T04:00:29;98478.23;;;28.06;40.49
14966;BME280;7577;45.226;5.798;2023-08-01T04:03:01;98472.64;;;28.06;40.41
14966;BME280;7577;45.226;5.798;2023-08-01T04:05:32;98466.02;;;28.04;40.43
14966;BME280;7577;45.226;5.798;2023-08-01T04:08:03;98480.61;;;28.03;40.44
14966;BME280;7577;45.226;5.798;2023-08-01T04:10:33;98477.02;;;28.03;40.47
14966;BME280;7577;45.226;5.798;2023-08-01T04:13:03;98480.61;;;28.03;40.45
14966;BME280;7577;45.226;5.798;2023-08-01T04:15:33;98486.20;;;28.03;40.47
14966;BME280;7577;45.226;5.798;2023-08-01T04:18:03;98488.61;;;28.02;40.48
14966;BME280;7577;45.226;5.798;2023-08-01T04:20:33;98474.61;;;28.02;40.49
14966;BME280;7577;45.226;5.798;2023-08-01T04:25:44;98470.81;;;28.03;40.52
14966;BME280;7577;45.226;5.798;2023-08-01T04:28:15;98472.58;;;27.98;40.53
14966;BME280;7577;45.226;5.798;2023-08-01T04:30:50;98473.98;;;27.98;40.56
14966;BME280;7577;45.226;5.798;2023-08-01T04:33:20;98479.97;;;27.97;40.58
14966;BME280;7577;45.226;5.798;2023-08-01T04:35:50;98465.77;;;27.96;40.53
14966;BME280;7577;45.226;5.798;2023-08-01T04:38:20;98469.95;;;27.93;40.61
14966;BME280;7577;45.226;5.798;2023-08-01T04:40:50;98470.54;;;27.92;40.61
14966;BME280;7577;45.226;5.798;2023-08-01T04:43:20;98470.54;;;27.92;40.61
14966;BME280;7577;45.226;5.798;2023-08-01T04:45:50;98485.17;;;27.95;40.61
14966;BME280;7577;45.226;5.798;2023-08-01T04:48:20;98488.55;;;27.94;40.63
14966;BME280;7577;45.226;5.798;2023-08-01T04:50:51;98480.97;;;27.95;40.61
14966;BME280;7577;45.226;5.798;2023-08-01T04:53:21;98479.13;;;27.89;40.62
14966;BME280;7577;45.226;5.798;2023-08-01T04:55:51;98485.13;;;27.91;40.62
14966;BME280;7577;45.226;5.798;2023-08-01T04:58:22;98493.14;;;27.93;40.62
14966;BME280;7577;45.226;5.798;2023-08-01T05:00:52;98489.55;;;27.93;40.64
14966;BME280;7577;45.226;5.798;2023-08-01T05:03:22;98490.34;;;27.93;40.64
14966;BME280;7577;45.226;5.798;2023-08-01T05:05:52;98493.52;;;27.91;40.63
14966;BME280;7577;45.226;5.798;2023-08-01T05:08:22;98488.54;;;27.91;40.66
14966;BME280;7577;45.226;5.798;2023-08-01T05:10:52;98484.32;;;27.88;40.96
14966;BME280;7577;45.226;5.798;2023-08-01T05:13:22;98494.32;;;27.88;40.69
14966;BME280;7577;45.226;5.798;2023-08-01T05:15:52;98491.72;;;27.89;40.65
14966;BME280;7577;45.226;5.798;2023-08-01T05:18:22;98491.72;;;27.89;40.65
14966;BME280;7577;45.226;5.798;2023-08-01T05:23:29;98487.34;;;27.92;40.70
14966;BME280;7577;45.226;5.798;2023-08-01T05:26:00;98480.91;;;27.88;40.84
14966;BME280;7577;45.226;5.798;2023-08-01T05:28:30;98480.91;;;27.88;40.84
14966;BME280;7577;45.226;5.798;2023-08-01T05:31:00;98478.11;;;27.88;40.75
14966;BME280;7577;45.226;5.798;2023-08-01T05:33:30;98469.91;;;27.89;40.74
14966;BME280;7577;45.226;5.798;2023-08-01T05:36:00;98472.70;;;27.89;40.73
14966;BME280;7577;45.226;5.798;2023-08-01T05:38:30;98474.11;;;27.89;40.77
14966;BME280;7577;45.226;5.798;2023-08-01T05:41:01;98471.92;;;27.88;40.76
14966;BME280;7577;45.226;5.798;2023-08-01T05:43:31;98464.68;;;27.84;40.72
14966;BME280;7577;45.226;5.798;2023-08-01T05:46:01;98475.30;;;27.84;40.62
14966;BME280;7577;45.226;5.798;2023-08-01T05:48:31;98475.30;;;27.84;40.62
14966;BME280;7577;45.226;5.798;2023-08-01T05:51:01;98477.71;;;27.86;40.78
14966;BME280;7577;45.226;5.798;2023-08-01T05:53:31;98474.09;;;27.85;40.77
14966;BME280;7577;45.226;5.798;2023-08-01T05:56:01;98477.52;;;27.88;40.69
14966;BME280;7577;45.226;5.798;2023-08-01T05:58:33;98491.52;;;27.88;40.69
14966;BME280;7577;45.226;5.798;2023-08-01T06:01:03;98495.67;;;27.85;40.72
14966;BME280;7577;45.226;5.798;2023-08-01T06:03:33;98501.27;;;27.85;40.72
14966;BME280;7577;45.226;5.798;2023-08-01T06:06:03;98510.29;;;27.84;40.75
14966;BME280;7577;45.226;5.798;2023-08-01T06:08:33;98513.47;;;27.83;40.70
14966;BME280;7577;45.226;5.798;2023-08-01T06:11:03;98513.47;;;27.83;40.70
14966;BME280;7577;45.226;5.798;2023-08-01T06:16:11;98519.98;;;27.77;40.87
14966;BME280;7577;45.226;5.798;2023-08-01T06:21:19;98516.45;;;27.80;40.52
14966;BME280;7577;45.226;5.798;2023-08-01T06:23:50;98517.27;;;27.81;41.06
14966;BME280;7577;45.226;5.798;2023-08-01T06:26:19;98517.27;;;27.81;41.06
14966;BME280;7577;45.226;5.798;2023-08-01T06:28:49;98500.47;;;27.81;40.65
14966;BME280;7577;45.226;5.798;2023-08-01T06:31:21;98517.47;;;27.82;40.67
14966;BME280;7577;45.226;5.798;2023-08-01T06:33:52;98518.05;;;27.81;40.64
14966;BME280;7577;45.226;5.798;2023-08-01T06:36:22;98516.66;;;27.81;40.64
14966;BME280;7577;45.226;5.798;2023-08-01T06:38:52;98515.05;;;27.80;40.66
14966;BME280;7577;45.226;5.798;2023-08-01T06:41:22;98525.05;;;27.81;40.66
14966;BME280;7577;45.226;5.798;2023-08-01T06:43:52;98512.25;;;27.80;40.66
14966;BME280;7577;45.226;5.798;2023-08-01T06:49:00;98514.05;;;27.82;40.66
14966;BME280;7577;45.226;5.798;2023-08-01T06:51:30;98516.22;;;27.79;40.69
14966;BME280;7577;45.226;5.798;2023-08-01T06:54:00;98525.20;;;27.79;40.67
14966;BME280;7577;45.226;5.798;2023-08-01T06:56:30;98525.78;;;27.78;40.69
14966;BME280;7577;45.226;5.798;2023-08-01T06:59:00;98525.78;;;27.78;40.69
14966;BME280;7577;45.226;5.798;2023-08-01T07:01:30;98518.20;;;27.79;40.70
14966;BME280;7577;45.226;5.798;2023-08-01T07:04:01;98516.22;;;27.79;40.66
14966;BME280;7577;45.226;5.798;2023-08-01T07:06:31;98516.22;;;27.79;40.66
14966;BME280;7577;45.226;5.798;2023-08-01T07:09:01;98509.17;;;27.76;41.01
14966;BME280;7577;45.226;5.798;2023-08-01T07:11:31;98516.22;;;27.79;40.62
14966;BME280;7577;45.226;5.798;2023-08-01T07:14:02;98522.98;;;27.78;40.63
14966;BME280;7577;45.226;5.798;2023-08-01T07:16:32;98520.60;;;27.77;40.66
14966;BME280;7577;45.226;5.798;2023-08-01T07:21:44;98546.78;;;27.78;40.65
14966;BME280;7577;45.226;5.798;2023-08-01T07:24:16;98554.58;;;27.75;40.67
14966;BME280;7577;45.226;5.798;2023-08-01T07:26:47;98560.35;;;27.73;40.69
14966;BME280;7577;45.226;5.798;2023-08-01T07:29:17;98547.58;;;27.75;40.66
14966;BME280;7577;45.226;5.798;2023-08-01T07:31:47;98537.40;;;27.77;40.67
14966;BME280;7577;45.226;5.798;2023-08-01T07:34:17;98535.77;;;27.76;40.66
14966;BME280;7577;45.226;5.798;2023-08-01T07:36:48;98534.80;;;27.78;40.71
14966;BME280;7577;45.226;5.798;2023-08-01T07:39:20;98539.78;;;27.78;40.74
14966;BME280;7577;45.226;5.798;2023-08-01T07:41:50;98553.20;;;27.79;40.80
14966;BME280;7577;45.226;5.798;2023-08-01T07:44:20;98560.78;;;27.78;40.83
14966;BME280;7577;45.226;5.798;2023-08-01T07:46:50;98557.98;;;27.78;40.85
14966;BME280;7577;45.226;5.798;2023-08-01T07:49:20;98559.38;;;27.78;40.88
14966;BME280;7577;45.226;5.798;2023-08-01T07:51:50;98551.72;;;27.72;40.88
14966;BME280;7577;45.226;5.798;2023-08-01T07:54:21;98554.02;;;27.79;40.88
14966;BME280;7577;45.226;5.798;2023-08-01T07:56:50;98554.02;;;27.79;40.88
14966;BME280;7577;45.226;5.798;2023-08-01T07:59:21;98546.78;;;27.78;40.92
14966;BME280;7577;45.226;5.798;2023-08-01T08:01:51;98547.80;;;27.80;40.95
14966;BME280;7577;45.226;5.798;2023-08-01T08:04:21;98550.59;;;27.80;40.83
14966;BME280;7577;45.226;5.798;2023-08-01T08:06:51;98550.59;;;27.80;40.83
14966;BME280;7577;45.226;5.798;2023-08-01T08:09:23;98534.06;;;27.81;41.04
14966;BME280;7577;45.226;5.798;2023-08-01T08:11:53;98534.06;;;27.81;41.04
14966;BME280;7577;45.226;5.798;2023-08-01T08:14:25;98540.25;;;27.80;41.08
14966;BME280;7577;45.226;5.798;2023-08-01T08:19:36;98530.27;;;27.83;41.14
14966;BME280;7577;45.226;5.798;2023-08-01T08:22:06;98536.05;;;27.80;41.16
14966;BME280;7577;45.226;5.798;2023-08-01T08:24:37;98542.20;;;27.80;41.20
14966;BME280;7577;45.226;5.798;2023-08-01T08:27:08;98543.86;;;27.81;41.20
14966;BME280;7577;45.226;5.798;2023-08-01T08:29:39;98540.80;;;27.80;41.27
14966;BME280;7577;45.226;5.798;2023-08-01T08:32:11;98523.22;;;27.79;41.42
14966;BME280;7577;45.226;5.798;2023-08-01T08:34:41;98523.22;;;27.79;41.42
14966;BME280;7577;45.226;5.798;2023-08-01T08:37:11;98542.47;;;27.81;41.24
14966;BME280;7577;45.226;5.798;2023-08-01T08:39:42;98540.98;;;27.77;41.27
14966;BME280;7577;45.226;5.798;2023-08-01T08:42:12;98553.78;;;27.78;41.28
14966;BME280;7577;45.226;5.798;2023-08-01T08:44:43;98559.17;;;27.77;41.32
14966;BME280;7577;45.226;5.798;2023-08-01T08:49:55;98561.59;;;27.79;41.37
14966;BME280;7577;45.226;5.798;2023-08-01T08:52:26;98559.17;;;27.77;41.37
14966;BME280;7577;45.226;5.798;2023-08-01T08:54:57;98555.18;;;27.78;41.36
14966;BME280;7577;45.226;5.798;2023-08-01T08:57:28;98541.64;;;27.80;41.33
14966;BME280;7577;45.226;5.798;2023-08-01T09:00:00;98549.86;;;27.83;41.33
14966;BME280;7577;45.226;5.798;2023-08-01T09:02:34;98557.88;;;27.84;41.29
14966;BME280;7577;45.226;5.798;2023-08-01T09:05:05;98571.50;;;27.86;41.30
14966;BME280;7577;45.226;5.798;2023-08-01T09:07:38;98563.30;;;27.87;41.26
14966;BME280;7577;45.226;5.798;2023-08-01T09:10:10;98572.10;;;27.89;41.25
14966;BME280;7577;45.226;5.798;2023-08-01T09:12:40;98566.32;;;27.91;41.20
14966;BME280;7577;45.226;5.798;2023-08-01T09:15:11;98581.34;;;27.93;41.16
14966;BME280;7577;45.226;5.798;2023-08-01T09:17:50;98584.95;;;27.93;41.11
14966;BME280;7577;45.226;5.798;2023-08-01T09:22:58;98578.59;;;27.97;41.06
14966;BME280;7577;45.226;5.798;2023-08-01T09:25:35;98586.94;;;27.93;41.05
14966;BME280;7577;45.226;5.798;2023-08-01T09:28:16;98588.13;;;27.92;41.09
14966;BME280;7577;45.226;5.798;2023-08-01T09:30:48;98584.31;;;27.90;41.13
14966;BME280;7577;45.226;5.798;2023-08-01T09:33:19;98580.50;;;27.89;41.16
14966;BME280;7577;45.226;5.798;2023-08-01T09:35:50;98583.30;;;27.89;41.19
14966;BME280;7577;45.226;5.798;2023-08-01T09:38:21;98597.30;;;27.89;41.22
14966;BME280;7577;45.226;5.798;2023-08-01T09:40:52;98603.51;;;27.88;41.28
14966;BME280;7577;45.226;5.798;2023-08-01T09:43:22;98603.31;;;27.88;41.29
14966;BME280;7577;45.226;5.798;2023-08-01T09:45:53;98611.30;;;27.89;41.30
14966;BME280;7577;45.226;5.798;2023-08-01T09:48:25;98615.50;;;27.89;41.31
14966;BME280;7577;45.226;5.798;2023-08-01T09:51:06;98610.52;;;27.88;41.33
14966;BME280;7577;45.226;5.798;2023-08-01T09:53:46;98605.49;;;27.88;41.41
14966;BME280;7577;45.226;5.798;2023-08-01T09:56:08;98602.70;;;27.88;41.46
14966;BME280;7577;45.226;5.798;2023-08-01T09:58:40;98608.73;;;27.90;41.50
14966;BME280;7577;45.226;5.798;2023-08-01T10:01:12;98608.47;;;27.85;41.64
14966;BME280;7577;45.226;5.798;2023-08-01T10:03:45;98609.70;;;27.88;41.65
14966;BME280;7577;45.226;5.798;2023-08-01T10:06:18;98598.47;;;27.84;41.72
14966;BME280;7577;45.226;5.798;2023-08-01T10:08:49;98605.11;;;27.89;41.81
14966;BME280;7577;45.226;5.798;2023-08-01T10:11:22;98585.91;;;27.91;41.86
14966;BME280;7577;45.226;5.798;2023-08-01T10:13:52;98574.95;;;27.93;41.86
14966;BME280;7577;45.226;5.798;2023-08-01T10:16:23;98584.13;;;27.93;41.88
14966;BME280;7577;45.226;5.798;2023-08-01T10:18:55;98585.53;;;27.93;41.88
14966;BME280;7577;45.226;5.798;2023-08-01T10:21:27;98588.34;;;27.93;41.85
14966;BME280;7577;45.226;5.798;2023-08-01T10:23:59;98586.35;;;27.93;41.93
14966;BME280;7577;45.226;5.798;2023-08-01T10:26:30;98587.55;;;27.93;41.96
14966;BME280;7577;45.226;5.798;2023-08-01T10:29:01;98571.92;;;27.91;41.93
14966;BME280;7577;45.226;5.798;2023-08-01T10:31:31;98571.92;;;27.91;41.93
14966;BME280;7577;45.226;5.798;2023-08-01T10:34:06;98566.55;;;27.93;42.18
14966;BME280;7577;45.226;5.798;2023-08-01T10:39:21;98567.77;;;27.95;42.22
14966;BME280;7577;45.226;5.798;2023-08-01T10:41:59;98574.95;;;27.93;42.22
14966;BME280;7577;45.226;5.798;2023-08-01T10:47:07;98571.97;;;27.95;42.23
14966;BME280;7577;45.226;5.798;2023-08-01T10:49:39;98557.90;;;27.88;42.26
14966;BME280;7577;45.226;5.798;2023-08-01T10:52:18;98562.75;;;27.94;42.29
14966;BME280;7577;45.226;5.798;2023-08-01T10:54:48;98552.31;;;27.91;42.12
14966;BME280;7577;45.226;5.798;2023-08-01T10:57:19;98552.31;;;27.91;42.12
14966;BME280;7577;45.226;5.798;2023-08-01T10:59:50;98562.37;;;27.96;42.23
14966;BME280;7577;45.226;5.798;2023-08-01T11:02:24;98553.58;;;27.98;42.20
14966;BME280;7577;45.226;5.798;2023-08-01T11:04:59;98547.78;;;27.97;42.15
14966;BME280;7577;45.226;5.798;2023-08-01T11:07:30;98553.58;;;27.98;42.15
14966;BME280;7577;45.226;5.798;2023-08-01T11:10:08;98543.59;;;27.97;42.11
14966;BME280;7577;45.226;5.798;2023-08-01T11:12:40;98537.57;;;27.98;42.07
14966;BME280;7577;45.226;5.798;2023-08-01T11:15:12;98538.97;;;27.98;42.07
14966;BME280;7577;45.226;5.798;2023-08-01T11:20:23;98521.59;;;28.02;41.97
14966;BME280;7577;45.226;5.798;2023-08-01T11:22:55;98523.41;;;28.01;41.94
14966;BME280;7577;45.226;5.798;2023-08-01T11:25:36;98517.81;;;28.01;41.93
14966;BME280;7577;45.226;5.798;2023-08-01T11:28:10;98517.40;;;28.02;41.91
14966;BME280;7577;45.226;5.798;2023-08-01T11:30:40;98514.59;;;28.02;41.87
14966;BME280;7577;45.226;5.798;2023-08-01T11:33:15;98502.00;;;28.02;41.84
14966;BME280;7577;45.226;5.798;2023-08-01T11:35:46;98480.39;;;27.99;42.04
14966;BME280;7577;45.226;5.798;2023-08-01T11:38:16;98480.39;;;27.99;42.04
14966;BME280;7577;45.226;5.798;2023-08-01T11:40:47;98481.81;;;28.03;41.78
14966;BME280;7577;45.226;5.798;2023-08-01T11:43:18;98477.61;;;28.03;41.75
14966;BME280;7577;45.226;5.798;2023-08-01T11:45:52;98483.80;;;28.02;41.72
14966;BME280;7577;45.226;5.798;2023-08-01T11:48:24;98473.21;;;28.02;41.67
14966;BME280;7577;45.226;5.798;2023-08-01T11:50:58;98466.02;;;28.01;41.68
14966;BME280;7577;45.226;5.798;2023-08-01T11:53:29;98468.20;;;28.04;41.62
14966;BME280;7577;45.226;5.798;2023-08-01T11:56:01;98463.03;;;28.07;41.58
14966;BME280;7577;45.226;5.798;2023-08-01T11:58:32;98452.42;;;28.06;41.54
14966;BME280;7577;45.226;5.798;2023-08-01T12:01:08;98453.05;;;28.09;41.48
14966;BME280;7577;45.226;5.798;2023-08-01T12:06:25;98449.05;;;28.10;41.43
14966;BME280;7577;45.226;5.798;2023-08-01T12:08:55;98449.42;;;28.05;41.59
14966;BME280;7577;45.226;5.798;2023-08-01T12:11:27;98443.25;;;28.09;41.33
14966;BME280;7577;45.226;5.798;2023-08-01T12:14:02;98447.06;;;28.11;41.30
14966;BME280;7577;45.226;5.798;2023-08-01T12:16:33;98444.84;;;28.10;41.27
14966;BME280;7577;45.226;5.798;2023-08-01T12:19:03;98446.05;;;28.13;41.21
14966;BME280;7577;45.226;5.798;2023-08-01T12:21:34;98438.66;;;28.14;41.20
14966;BME280;7577;45.226;5.798;2023-08-01T12:26:43;98442.28;;;28.15;41.21
14966;BME280;7577;45.226;5.798;2023-08-01T12:29:13;98435.28;;;28.15;41.19
14966;BME280;7577;45.226;5.798;2023-08-01T12:31:43;98426.05;;;28.11;40.93
14966;BME280;7577;45.226;5.798;2023-08-01T12:34:14;98426.05;;;28.11;40.93
14966;BME280;7577;45.226;5.798;2023-08-01T12:36:45;98431.47;;;28.17;41.11
14966;BME280;7577;45.226;5.798;2023-08-01T12:39:14;98435.09;;;28.17;41.13
14966;BME280;7577;45.226;5.798;2023-08-01T12:41:44;98434.70;;;28.19;41.08
14966;BME280;7577;45.226;5.798;2023-08-01T12:44:14;98430.27;;;28.18;41.10
14966;BME280;7577;45.226;5.798;2023-08-01T12:46:46;98435.09;;;28.17;41.11
14966;BME280;7577;45.226;5.798;2023-08-01T12:51:57;98417.08;;;28.18;41.14
14966;BME280;7577;45.226;5.798;2023-08-01T12:54:27;98414.87;;;28.18;41.14
14966;BME280;7577;45.226;5.798;2023-08-01T12:56:57;98414.48;;;28.19;41.10
14966;BME280;7577;45.226;5.798;2023-08-01T12:59:27;98418.88;;;28.20;41.08
14966;BME280;7577;45.226;5.798;2023-08-01T13:01:57;98417.91;;;28.22;41.06
14966;BME280;7577;45.226;5.798;2023-08-01T13:04:27;98417.31;;;28.23;41.06
14966;BME280;7577;45.226;5.798;2023-08-01T13:06:57;98412.11;;;28.25;41.04
14966;BME280;7577;45.226;5.798;2023-08-01T13:09:27;98398.30;;;28.26;40.99
14966;BME280;7577;45.226;5.798;2023-08-01T13:11:57;98394.52;;;28.28;40.98
14966;BME280;7577;45.226;5.798;2023-08-01T13:14:28;98397.33;;;28.28;40.97
14966;BME280;7577;45.226;5.798;2023-08-01T13:19:36;98395.92;;;28.28;40.99
14966;BME280;7577;45.226;5.798;2023-08-01T13:22:09;98386.31;;;28.29;40.97
14966;BME280;7577;45.226;5.798;2023-08-01T13:24:39;98389.31;;;28.30;40.95
14966;BME280;7577;45.226;5.798;2023-08-01T13:27:09;98380.72;;;28.32;40.92
14966;BME280;7577;45.226;5.798;2023-08-01T13:29:39;98374.92;;;28.35;40.89
14966;BME280;7577;45.226;5.798;2023-08-01T13:32:10;98367.52;;;28.36;40.86
14966;BME280;7577;45.226;5.798;2023-08-01T13:34:39;98365.93;;;28.39;40.81
14966;BME280;7577;45.226;5.798;2023-08-01T13:37:10;98359.58;;;28.42;40.78
14966;BME280;7577;45.226;5.798;2023-08-01T13:39:41;98349.97;;;28.43;40.77
14966;BME280;7577;45.226;5.798;2023-08-01T13:42:12;98354.59;;;28.45;40.72
14966;BME280;7577;45.226;5.798;2023-08-01T13:44:42;98354.98;;;28.47;40.70
14966;BME280;7577;45.226;5.798;2023-08-01T13:47:12;98348.98;;;28.48;40.68
14966;BME280;7577;45.226;5.798;2023-08-01T13:49:42;98349.38;;;28.50;40.63
14966;BME280;7577;45.226;5.798;2023-08-01T13:52:12;98353.61;;;28.54;40.59
14966;BME280;7577;45.226;5.798;2023-08-01T13:54:43;98343.19;;;28.54;40.57
14966;BME280;7577;45.226;5.798;2023-08-01T13:57:13;98335.39;;;28.54;40.54
14966;BME280;7577;45.226;5.798;2023-08-01T13:59:43;98330.97;;;28.53;40.55
14966;BME280;7577;45.226;5.798;2023-08-01T14:04:52;98318.58;;;28.57;40.58
14966;BME280;7577;45.226;5.798;2023-08-01T14:07:23;98321.77;;;28.59;40.54
14966;BME280;7577;45.226;5.798;2023-08-01T14:09:53;98319.38;;;28.61;40.49
14966;BME280;7577;45.226;5.798;2023-08-01T14:12:23;98319.38;;;28.65;40.43
14966;BME280;7577;45.226;5.798;2023-08-01T14:14:55;98315.38;;;28.66;40.40
14966;BME280;7577;45.226;5.798;2023-08-01T14:17:25;98325.41;;;28.67;40.40
14966;BME280;7577;45.226;5.798;2023-08-01T14:22:33;98315.78;;;28.71;40.37
14966;BME280;7577;45.226;5.798;2023-08-01T14:25:05;98313.38;;;28.70;40.36
14966;BME280;7577;45.226;5.798;2023-08-01T14:27:36;98309.79;;;28.69;40.36